createdAt,value
2023-03-06T00:05:39.034Z,25.6
2023-03-06T00:11:31.168Z,27.5
2023-03-06T00:17:23.942Z,25.7
2023-03-06T00:23:14.980Z,28.7
2023-03-06T00:29:11.071Z,27.5
2023-03-06T00:35:03.109Z,26.9
2023-03-06T00:40:54.904Z,29
2023-03-06T00:46:50.038Z,28.1
2023-03-06T00:52:40.469Z,29.8
2023-03-06T00:58:32.568Z,30.9
2023-03-06T01:04:29.429Z,30.5
2023-03-06T01:10:22.092Z,33
2023-03-06T01:16:18.116Z,31
2023-03-06T01:22:11.703Z,32.3
2023-03-06T01:28:11.702Z,33.3
2023-03-06T01:34:10.637Z,33.9
2023-03-06T01:40:03.376Z,32.2
2023-03-06T01:45:58.518Z,29.5
2023-03-06T01:51:56.371Z,30.8
2023-03-06T01:57:49.722Z,28.8
2023-03-06T02:03:41.468Z,27.4
2023-03-06T02:09:33.976Z,25.7
2023-03-06T02:15:37.521Z,26.3
2023-03-06T02:21:29.033Z,26.5
2023-03-06T02:27:34.123Z,24.3
2023-03-06T02:33:27.143Z,22.8
2023-03-06T02:39:18.516Z,26.1
2023-03-06T02:45:08.433Z,22.6
2023-03-06T02:51:01.932Z,23.2
2023-03-06T02:56:58.541Z,25.4
2023-03-06T03:02:50.314Z,23.6
2023-03-06T03:08:42.053Z,25
2023-03-06T03:14:33.912Z,24.6
2023-03-06T03:20:25.289Z,25.2
2023-03-06T03:26:15.663Z,24.5
2023-03-06T03:32:06.396Z,26.6
2023-03-06T03:37:56.940Z,26.2
2023-03-06T03:43:48.352Z,25.8
2023-03-06T03:49:37.624Z,27.5
2023-03-06T03:55:28.410Z,26.1
2023-03-06T04:01:17.005Z,28.4
2023-03-06T04:07:08.841Z,25.5
2023-03-06T04:12:59.607Z,26.8
2023-03-06T04:18:52.759Z,28.4
2023-03-06T04:24:44.499Z,27.6
2023-03-06T04:30:34.199Z,31
2023-03-06T04:36:26.996Z,28.7
2023-03-06T04:42:17.797Z,28.9
2023-03-06T04:48:08.734Z,28.2
2023-03-06T04:53:59.226Z,28.5
2023-03-06T04:59:50.867Z,28.8
2023-03-06T05:05:43.333Z,29.6
2023-03-06T05:11:34.093Z,30.2
2023-03-06T05:30:30.158Z,32.9
2023-03-06T05:36:23.652Z,31.6
2023-03-06T05:42:18.932Z,33.4
2023-03-06T05:48:20.695Z,32.4
2023-03-06T05:54:16.946Z,31.9
2023-03-06T06:00:09.622Z,33.6
2023-03-06T06:06:19.170Z,33.6
2023-03-06T06:12:14.925Z,34.6
2023-03-06T06:18:06.726Z,35.6
2023-03-06T06:24:02.662Z,34.6
2023-03-06T06:29:55.096Z,40
2023-03-06T06:35:46.469Z,39.3
2023-03-06T06:42:39.769Z,36.5
2023-03-06T06:48:33.637Z,39.7
2023-03-06T06:54:27.254Z,38.7
2023-03-06T07:00:37.866Z,39.4
2023-03-06T07:06:32.831Z,37.1
2023-03-06T07:12:25.040Z,38.1
2023-03-06T07:18:21.086Z,39
2023-03-06T07:24:15.200Z,37.2
2023-03-06T07:30:14.154Z,38
2023-03-06T07:36:09.824Z,39.2
2023-03-06T07:42:04.106Z,39.5
2023-03-06T07:47:57.712Z,39.3
2023-03-06T07:55:16.232Z,41.7
2023-03-06T08:01:18.283Z,39.2
2023-03-06T08:07:16.633Z,44.2
2023-03-06T08:13:22.006Z,47.1
2023-03-06T08:19:14.121Z,43.3
2023-03-06T08:25:07.281Z,44.6
2023-03-06T08:43:16.148Z,50.4
2023-03-06T08:49:21.804Z,52.8
2023-03-06T09:01:35.291Z,51.2
2023-03-06T09:07:43.236Z,50.5
2023-03-06T09:13:36.813Z,49.3
2023-03-06T09:19:42.477Z,50.4
2023-03-06T09:25:36.472Z,51.3
2023-03-06T09:31:29.083Z,49.9
2023-03-06T09:37:34.212Z,47
2023-03-06T09:43:32.769Z,47.3
2023-03-06T09:49:26.998Z,48.4
2023-03-06T09:55:19.799Z,46.7
2023-03-06T10:01:18.366Z,46.4
2023-03-06T10:07:10.865Z,46.2
2023-03-06T10:13:05.758Z,46.5
2023-03-06T10:19:21.509Z,50.8
2023-03-06T10:25:12.909Z,39.2
2023-03-06T10:31:10.914Z,31
2023-03-06T10:37:24.175Z,35.9
2023-03-06T11:13:41.550Z,40.5
2023-03-06T11:19:41.104Z,64.4
2023-03-06T11:43:40.276Z,33.2
2023-03-06T12:13:31.106Z,28.3
2023-03-06T20:23:02.832Z,30.4
2023-03-06T20:29:02.740Z,31.9
2023-03-06T20:36:34.863Z,30.4
2023-03-06T20:42:54.808Z,31.1
2023-03-06T21:00:34.278Z,31.9
2023-03-06T21:07:06.508Z,33.3
2023-03-06T21:13:13.636Z,35.7
2023-03-06T21:19:12.912Z,36.8
2023-03-06T21:25:09.509Z,39.2
2023-03-06T21:31:04.863Z,37.7
2023-03-06T21:43:08.314Z,41.9
2023-03-06T21:49:44.238Z,40.2
2023-03-06T23:07:41.505Z,44.5
2023-03-06T23:13:37.560Z,40.3
2023-03-06T23:19:37.110Z,41.5
2023-03-06T23:32:16.935Z,39.1
2023-03-06T23:50:21.206Z,37.6
